Weather at Warren Farm Airstrip

Public forecast

Using degrees Celsius for public forecast. Weather courtesy of forecast.io.

Closest aviation weather report (METAR) to Warren Farm Airstrip

Closest report is Bristol Airport, 5.6 nm (10.3 km) N. Retrieved 2021/06/22 15:50 UTC (12 minutes ago):

EGGD 221550Z AUTO 01012KT 9999 OVC049 16/07 Q1022

Closest aviation forecast (TAF) to Warren Farm Airstrip

Closest forecast is Bristol Airport, 5.6 nm (10.3 km) N. Retrieved 2021/06/22 12:00 UTC (4 hours ago):

TAF EGGD 221054Z 2212/2312 03014KT 9999 SCT035 BECMG 2218/2221 VRB04KT